Aérodrome :
LOGIN :

S'inscrire | Disclaimer

   EN    FR    IT 

 










Légende :    VFR   VFR Marginal   IFR   IFR Intensif   IFR Très Intensif
Visi : 
Plafond : 
>= 8 km
>= 3000ft
5 à 8 km
1000 à 3000 ft
1500m à 5 km
500 à 1000 ft
800 à 1500m
200 à 500 ft
< 800m
< 200 ft
Symboles :   Orages  Brouillard  Fortes neiges  Fortes précipitations  Vent > 20 kt
SIGMETs :   Divers  Orages  Givrage  Turbulence  Onde Orograph.  Cendres Volcan.







- Altitude de l'aérodrome : 1197 ft
- Code IATA : SPM


ETAD - Spangdahlem Ab

DERNIER METAR :
  • 231856Z AUTO 07011KT 9999 CLR 05/M04 A3060 RMK AO2 SLP368 T00461042 $

METARs EXPIRÉS :
  • 231756Z AUTO 08009KT 9999 CLR 05/M05 A3060 RMK AO2 SLP368 T00541050 10099 20054 53005 $
  • 231656Z AUTO 08006KT 9999 CLR 07/M05 A3059 RMK AO2 SLP362 T00651046 $

TAF AMD TAF ETAD
Valide du 23 à 19h jusqu'au 24 à 21h UTC


231853Z 2319/2421 08012KT 9999 SKC QNH3057INS
BECMG 2322/2323 07005KT 9999 SKC QNH3057INS TX11/2414Z TN00/2404Z LAST NO AMDS AFT 2319 NEXT 2411
Pas de NOTAMs connus pour ce terrain.



MET'MAP, la Météo Aéronautique d'un coup d'oeil ! - Copyright ORBIFLY Décembre 2007 - Disclaimer

ORBIFLY MET'MAP TEAM :

Programmation & Développement : Alexandra Zaïnal
Conception & Développement : Baudouin d'Aumeries
Co-Programmation & Développement : Marc-Olivier Méhu
Soutien technique & logistique : Manuel Goepfert

Contact : metmap@orbifly.com




SOURCES & CREDITS :

   NOAA